Time;durP1;ratioP1;P1;durP2;ratioP2;P2;SDS_P1;SDS_P2;PMS_P1;PMS_P2;Temp;Humidity;BMP_temperature;BMP_pressure;BME280_temperature;BME280_humidity;BME280_pressure;Samples;Min_cycle;Max_cycle;Signal;HPM_P1;HPM_P2
2024/03/30 00:00:53;;;;;;;49.22;32.53;;;;;;;;;;5009595;28;20028;-68
2024/03/30 00:03:19;;;;;;;49.33;31.73;;;;;;;;;;5009490;28;20036;-69
2024/03/30 00:05:46;;;;;;;47.45;30.98;;;;;;;;;;5009427;28;20022;-66
2024/03/30 00:08:13;;;;;;;48.17;30.92;;;;;;;;;;5010829;28;20393;-66
2024/03/30 00:10:39;;;;;;;49.15;32.45;;;;;;;;;;5013138;28;20113;-66
2024/03/30 00:13:06;;;;;;;48.60;31.42;;;;;;;;;;5012937;28;20026;-68
2024/03/30 00:15:32;;;;;;;46.72;30.10;;;;;;;;;;5013138;28;20026;-67
2024/03/30 00:18:01;;;;;;;46.05;30.17;;;;;;;;;;5012831;28;20072;-67
2024/03/30 00:20:27;;;;;;;48.42;27.60;;;;;;;;;;5012883;28;20018;-66
2024/03/30 00:22:54;;;;;;;42.85;26.17;;;;;;;;;;5012946;28;20389;-67
2024/03/30 00:25:21;;;;;;;42.42;26.13;;;;;;;;;;5012877;28;20018;-68
2024/03/30 00:27:47;;;;;;;47.40;25.90;;;;;;;;;;5012802;28;20018;-69
2024/03/30 00:30:13;;;;;;;45.08;26.50;;;;;;;;;;5012698;28;20493;-68
2024/03/30 00:32:39;;;;;;;39.20;25.05;;;;;;;;;;5012627;28;20033;-69
2024/03/30 00:35:05;;;;;;;40.58;24.52;;;;;;;;;;5012640;28;20318;-70
2024/03/30 00:37:34;;;;;;;35.40;23.13;;;;;;;;;;5012845;28;20018;-68
2024/03/30 00:40:00;;;;;;;39.72;24.60;;;;;;;;;;5012546;28;20077;-67
2024/03/30 00:42:27;;;;;;;40.85;23.27;;;;;;;;;;5012444;28;20042;-67
2024/03/30 00:44:53;;;;;;;38.58;23.23;;;;;;;;;;5012542;28;20445;-67
2024/03/30 00:47:19;;;;;;;34.03;22.90;;;;;;;;;;5012675;28;20018;-67
2024/03/30 00:49:45;;;;;;;36.70;23.08;;;;;;;;;;5012204;28;20100;-68
2024/03/30 00:52:11;;;;;;;34.45;22.00;;;;;;;;;;5012626;28;20022;-67
2024/03/30 00:54:37;;;;;;;34.30;21.55;;;;;;;;;;5012253;28;20037;-66
2024/03/30 00:57:03;;;;;;;35.25;21.92;;;;;;;;;;5012618;28;20113;-66
2024/03/30 00:59:29;;;;;;;33.47;21.63;;;;;;;;;;5009985;28;20405;-66
2024/03/30 01:01:55;;;;;;;32.40;20.38;;;;;;;;;;5011368;28;20030;-66
2024/03/30 01:04:21;;;;;;;34.45;20.52;;;;;;;;;;5009340;28;20422;-67
2024/03/30 01:06:47;;;;;;;33.15;20.42;;;;;;;;;;5012002;28;20032;-66
2024/03/30 01:09:13;;;;;;;31.40;20.52;;;;;;;;;;5012037;28;20096;-67
2024/03/30 01:11:39;;;;;;;28.75;18.38;;;;;;;;;;5011639;28;20348;-67
2024/03/30 01:14:06;;;;;;;29.80;19.08;;;;;;;;;;5012211;28;20032;-66
2024/03/30 01:16:32;;;;;;;29.27;18.48;;;;;;;;;;5012080;28;20026;-67
2024/03/30 01:18:58;;;;;;;27.90;18.40;;;;;;;;;;5010084;28;20026;-67
2024/03/30 01:21:25;;;;;;;29.83;19.08;;;;;;;;;;5011375;28;20109;-65
2024/03/30 01:23:51;;;;;;;26.55;18.17;;;;;;;;;;5011946;28;20030;-67
2024/03/30 01:26:20;;;;;;;27.75;18.20;;;;;;;;;;5011794;28;20014;-66
2024/03/30 01:28:46;;;;;;;27.33;17.63;;;;;;;;;;5011636;28;20057;-67
2024/03/30 01:31:13;;;;;;;29.40;18.48;;;;;;;;;;5011348;28;20101;-67
2024/03/30 01:33:40;;;;;;;25.95;17.45;;;;;;;;;;5011447;28;20042;-66
2024/03/30 01:36:07;;;;;;;25.85;16.92;;;;;;;;;;5011469;28;20022;-68
2024/03/30 01:38:33;;;;;;;27.55;17.40;;;;;;;;;;5011843;28;20425;-68
2024/03/30 01:40:59;;;;;;;25.77;16.52;;;;;;;;;;5012128;28;20084;-67
2024/03/30 01:43:25;;;;;;;27.20;17.42;;;;;;;;;;5012370;28;20029;-67
2024/03/30 01:45:53;;;;;;;25.67;16.48;;;;;;;;;;5011952;28;20509;-67
2024/03/30 01:48:20;;;;;;;24.80;15.52;;;;;;;;;;5012537;28;20056;-67
2024/03/30 01:50:46;;;;;;;28.30;16.25;;;;;;;;;;5012173;28;20478;-67
2024/03/30 01:53:13;;;;;;;24.70;15.77;;;;;;;;;;4994538;28;20033;-67
2024/03/30 01:55:41;;;;;;;24.10;15.13;;;;;;;;;;5012179;28;20104;-69
2024/03/30 01:58:07;;;;;;;22.35;14.68;;;;;;;;;;5012189;28;20026;-67
2024/03/30 02:00:34;;;;;;;23.85;15.27;;;;;;;;;;5012079;28;20018;-67
2024/03/30 02:03:01;;;;;;;22.80;15.82;;;;;;;;;;5011864;28;20454;-68
2024/03/30 02:05:29;;;;;;;23.83;15.52;;;;;;;;;;5012071;28;20494;-68
2024/03/30 02:07:58;;;;;;;22.15;14.45;;;;;;;;;;5012072;28;20026;-68
2024/03/30 02:10:24;;;;;;;21.85;14.60;;;;;;;;;;5012059;28;20018;-68
2024/03/30 02:12:50;;;;;;;20.35;13.30;;;;;;;;;;5011719;28;20401;-69
2024/03/30 02:15:16;;;;;;;23.60;14.38;;;;;;;;;;5011779;28;20083;-68
2024/03/30 02:17:42;;;;;;;21.38;14.30;;;;;;;;;;5011705;28;20034;-69
2024/03/30 02:20:08;;;;;;;21.40;14.45;;;;;;;;;;4994388;28;20049;-69
2024/03/30 02:22:34;;;;;;;22.20;13.65;;;;;;;;;;5011906;28;20176;-68
2024/03/30 02:25:00;;;;;;;21.30;14.35;;;;;;;;;;5011793;28;20029;-68
2024/03/30 02:27:26;;;;;;;19.92;13.45;;;;;;;;;;5011724;28;20021;-67
2024/03/30 02:29:55;;;;;;;20.45;13.50;;;;;;;;;;5011581;28;20108;-67
2024/03/30 02:32:21;;;;;;;19.92;12.77;;;;;;;;;;5011334;28;20022;-66
2024/03/30 02:34:47;;;;;;;21.25;13.82;;;;;;;;;;5011534;28;20114;-66
2024/03/30 02:37:13;;;;;;;19.48;12.70;;;;;;;;;;5011842;28;20080;-67
2024/03/30 02:39:39;;;;;;;19.40;12.57;;;;;;;;;;5011445;28;20375;-66
2024/03/30 02:42:05;;;;;;;21.70;13.30;;;;;;;;;;5011249;28;20014;-68
2024/03/30 02:44:31;;;;;;;20.02;12.40;;;;;;;;;;5011343;28;20033;-67
2024/03/30 02:46:57;;;;;;;23.45;12.20;;;;;;;;;;5049326;23;20049;-65
2024/03/30 02:49:23;;;;;;;18.40;11.48;;;;;;;;;;5028886;28;20018;-65
2024/03/30 02:51:49;;;;;;;19.02;12.40;;;;;;;;;;5029322;28;20033;-66
2024/03/30 02:54:15;;;;;;;24.05;12.52;;;;;;;;;;5029579;28;20134;-65
2024/03/30 02:56:41;;;;;;;20.88;12.30;;;;;;;;;;5029304;28;20021;-65
2024/03/30 02:59:07;;;;;;;30.58;13.18;;;;;;;;;;5029344;28;20025;-65
2024/03/30 03:01:36;;;;;;;17.65;12.00;;;;;;;;;;5029345;28;20021;-64
2024/03/30 03:04:03;;;;;;;21.58;11.65;;;;;;;;;;5029489;28;20053;-64
2024/03/30 03:06:28;;;;;;;21.88;11.80;;;;;;;;;;5029408;28;20018;-65
2024/03/30 03:08:54;;;;;;;17.00;10.93;;;;;;;;;;5029156;28;20031;-65
2024/03/30 03:11:21;;;;;;;19.75;11.82;;;;;;;;;;5029164;28;20099;-64
2024/03/30 03:13:47;;;;;;;17.08;11.32;;;;;;;;;;5029062;28;20028;-65
2024/03/30 03:16:13;;;;;;;17.60;11.85;;;;;;;;;;5028967;28;20374;-64
2024/03/30 03:18:39;;;;;;;26.05;11.30;;;;;;;;;;5029424;28;20033;-64
2024/03/30 03:21:05;;;;;;;16.63;10.70;;;;;;;;;;5029197;28;20017;-65
2024/03/30 03:23:32;;;;;;;18.48;12.02;;;;;;;;;;5029025;28;20381;-65
2024/03/30 03:25:58;;;;;;;27.05;11.00;;;;;;;;;;5028850;28;20447;-64
2024/03/30 03:28:24;;;;;;;18.15;12.07;;;;;;;;;;5029024;28;20021;-63
2024/03/30 03:30:50;;;;;;;17.63;10.30;;;;;;;;;;5028701;28;20033;-64
2024/03/30 03:33:16;;;;;;;17.73;11.02;;;;;;;;;;5028895;28;20504;-63
2024/03/30 03:35:42;;;;;;;19.40;10.30;;;;;;;;;;5028793;28;20128;-64
2024/03/30 03:38:09;;;;;;;17.13;10.50;;;;;;;;;;5028844;28;20101;-64
2024/03/30 03:40:35;;;;;;;16.63;10.30;;;;;;;;;;5029184;28;20022;-64
2024/03/30 03:43:01;;;;;;;18.88;10.63;;;;;;;;;;5030041;28;20448;-64
2024/03/30 03:45:26;;;;;;;15.98;10.23;;;;;;;;;;5032371;28;20014;-64
2024/03/30 03:47:52;;;;;;;17.05;9.93;;;;;;;;;;5032645;28;20381;-64
2024/03/30 03:50:18;;;;;;;15.18;9.70;;;;;;;;;;5032790;28;20032;-64
2024/03/30 03:52:44;;;;;;;14.82;9.57;;;;;;;;;;5033003;28;20029;-65
2024/03/30 03:55:10;;;;;;;15.02;9.32;;;;;;;;;;5032749;28;20017;-64
2024/03/30 03:57:36;;;;;;;14.75;9.20;;;;;;;;;;5032494;28;20022;-65
2024/03/30 04:00:03;;;;;;;13.38;8.95;;;;;;;;;;5032438;28;20560;-65
2024/03/30 04:02:30;;;;;;;13.57;8.77;;;;;;;;;;5032434;28;20083;-65
2024/03/30 04:04:56;;;;;;;16.45;9.57;;;;;;;;;;5032213;28;20053;-66
2024/03/30 04:07:22;;;;;;;15.07;9.05;;;;;;;;;;5032477;28;20377;-66
2024/03/30 04:09:51;;;;;;;14.65;9.10;;;;;;;;;;5032764;28;20030;-65
2024/03/30 04:12:17;;;;;;;14.10;9.02;;;;;;;;;;5032213;28;20393;-65
2024/03/30 04:14:43;;;;;;;12.52;8.27;;;;;;;;;;5032294;28;20045;-64
2024/03/30 04:17:09;;;;;;;16.08;8.18;;;;;;;;;;5032354;28;20021;-64
2024/03/30 04:19:35;;;;;;;14.18;8.55;;;;;;;;;;5032216;28;20040;-64
2024/03/30 04:22:02;;;;;;;12.77;8.48;;;;;;;;;;5031933;28;20022;-62
2024/03/30 04:24:28;;;;;;;11.95;7.57;;;;;;;;;;5032433;28;20017;-65
2024/03/30 04:26:54;;;;;;;14.38;8.32;;;;;;;;;;5031731;28;20044;-65
2024/03/30 04:29:20;;;;;;;12.73;8.18;;;;;;;;;;5031771;28;20029;-64
2024/03/30 04:31:46;;;;;;;10.57;7.85;;;;;;;;;;5031641;28;20029;-64
2024/03/30 04:34:12;;;;;;;10.35;7.57;;;;;;;;;;5032009;28;20029;-64
2024/03/30 04:36:38;;;;;;;10.48;7.10;;;;;;;;;;5031845;28;20478;-64
2024/03/30 04:39:04;;;;;;;12.57;7.97;;;;;;;;;;5031875;28;20029;-64
2024/03/30 04:41:30;;;;;;;12.73;7.50;;;;;;;;;;5031834;28;20026;-64
2024/03/30 04:43:56;;;;;;;11.38;7.28;;;;;;;;;;5031787;28;20021;-65
2024/03/30 04:46:22;;;;;;;13.98;7.82;;;;;;;;;;5031620;28;20028;-65
2024/03/30 04:48:48;;;;;;;9.90;6.97;;;;;;;;;;5031823;28;20029;-64
2024/03/30 04:51:14;;;;;;;11.70;6.97;;;;;;;;;;5031618;28;20025;-64
2024/03/30 04:53:40;;;;;;;11.18;7.43;;;;;;;;;;5031245;28;20397;-64
2024/03/30 04:56:07;;;;;;;11.27;7.82;;;;;;;;;;5030747;28;20021;-64
2024/03/30 04:58:33;;;;;;;10.35;6.25;;;;;;;;;;5031609;28;20104;-64
2024/03/30 05:01:04;;;;;;;11.55;7.00;;;;;;;;;;5031627;28;20092;-65
2024/03/30 05:03:30;;;;;;;10.27;6.22;;;;;;;;;;5030460;28;20025;-65
2024/03/30 05:05:57;;;;;;;10.15;6.78;;;;;;;;;;5031487;28;20376;-64
2024/03/30 05:08:23;;;;;;;11.27;6.40;;;;;;;;;;5031666;28;20069;-63
2024/03/30 05:10:50;;;;;;;11.35;7.10;;;;;;;;;;5031175;28;20405;-64
2024/03/30 05:13:16;;;;;;;7.90;5.60;;;;;;;;;;5031342;28;20156;-64
2024/03/30 05:15:43;;;;;;;10.10;6.53;;;;;;;;;;5031123;28;20159;-64
2024/03/30 05:18:10;;;;;;;8.90;5.95;;;;;;;;;;5031510;28;20025;-64
2024/03/30 05:20:53;;;;;;;10.95;6.18;;;;;;;;;;5031233;28;20342;-64
2024/03/30 05:23:23;;;;;;;8.65;5.20;;;;;;;;;;5024952;28;20109;-63
2024/03/30 05:25:50;;;;;;;9.00;5.03;;;;;;;;;;5031344;28;20029;-64
2024/03/30 05:28:17;;;;;;;12.68;6.65;;;;;;;;;;5031056;28;20413;-64
2024/03/30 05:30:43;;;;;;;7.90;5.15;;;;;;;;;;5031091;28;20025;-64
2024/03/30 05:33:09;;;;;;;13.55;6.03;;;;;;;;;;5030578;28;20029;-64
2024/03/30 05:35:38;;;;;;;11.50;6.07;;;;;;;;;;5031300;28;20419;-64
2024/03/30 05:38:04;;;;;;;10.18;5.05;;;;;;;;;;5031364;28;20018;-64
2024/03/30 05:40:32;;;;;;;7.68;5.15;;;;;;;;;;5031250;28;20021;-64
2024/03/30 05:42:58;;;;;;;12.20;5.28;;;;;;;;;;5031105;28;20751;-64
2024/03/30 05:45:24;;;;;;;9.18;5.40;;;;;;;;;;5031027;28;20377;-64
2024/03/30 05:47:50;;;;;;;10.98;5.07;;;;;;;;;;5031097;28;20026;-62
2024/03/30 05:50:16;;;;;;;7.30;4.55;;;;;;;;;;5031082;28;20114;-63
2024/03/30 05:52:42;;;;;;;9.48;4.97;;;;;;;;;;5030755;28;20021;-62
2024/03/30 05:55:08;;;;;;;8.43;4.70;;;;;;;;;;5029136;28;20029;-64
2024/03/30 05:57:34;;;;;;;8.52;4.90;;;;;;;;;;5020580;28;20019;-64
2024/03/30 06:00:00;;;;;;;8.57;4.60;;;;;;;;;;5033216;28;20349;-64
2024/03/30 06:02:26;;;;;;;6.57;4.05;;;;;;;;;;5032007;28;20050;-64
2024/03/30 06:04:52;;;;;;;11.82;4.70;;;;;;;;;;5031756;28;20041;-63
2024/03/30 06:07:18;;;;;;;12.00;5.22;;;;;;;;;;5029036;28;20101;-63
2024/03/30 06:09:45;;;;;;;6.82;4.75;;;;;;;;;;5032080;28;20465;-64
2024/03/30 06:12:11;;;;;;;5.53;4.22;;;;;;;;;;5031383;28;20017;-63
2024/03/30 06:14:37;;;;;;;8.00;4.28;;;;;;;;;;5032761;28;20048;-65
2024/03/30 06:17:03;;;;;;;23.00;5.95;;;;;;;;;;5032120;28;20037;-67
2024/03/30 06:19:29;;;;;;;18.25;4.90;;;;;;;;;;5032379;28;20017;-66
2024/03/30 06:21:55;;;;;;;13.00;4.50;;;;;;;;;;5032769;28;20041;-68
2024/03/30 06:24:21;;;;;;;11.27;5.03;;;;;;;;;;5032892;28;20018;-65
2024/03/30 06:26:47;;;;;;;15.00;5.72;;;;;;;;;;5032366;28;20411;-65
2024/03/30 06:29:13;;;;;;;7.78;4.57;;;;;;;;;;5032109;28;20021;-66
2024/03/30 06:31:39;;;;;;;17.25;5.82;;;;;;;;;;5030800;28;20041;-65
2024/03/30 06:34:05;;;;;;;9.43;5.15;;;;;;;;;;5031213;28;20100;-65
2024/03/30 06:36:32;;;;;;;11.90;6.25;;;;;;;;;;5031295;28;20013;-65
2024/03/30 06:38:58;;;;;;;20.85;6.53;;;;;;;;;;5031456;28;20032;-64
2024/03/30 06:44:10;;;;;;;16.95;7.03;;;;;;;;;;5030675;28;20059;-68
2024/03/30 06:46:36;;;;;;;17.63;5.57;;;;;;;;;;5030996;28;20060;-68
2024/03/30 06:49:02;;;;;;;22.58;7.63;;;;;;;;;;5031379;28;20087;-68
2024/03/30 06:51:29;;;;;;;17.50;6.38;;;;;;;;;;5030398;28;20029;-68
2024/03/30 06:53:55;;;;;;;19.27;6.45;;;;;;;;;;5031170;28;20079;-67
2024/03/30 06:56:21;;;;;;;13.73;5.03;;;;;;;;;;5029044;28;20026;-67
2024/03/30 06:58:47;;;;;;;16.80;5.85;;;;;;;;;;5030486;28;20378;-67
2024/03/30 07:01:13;;;;;;;13.50;4.68;;;;;;;;;;5030496;28;20079;-68
2024/03/30 07:03:39;;;;;;;16.75;5.63;;;;;;;;;;5029961;28;20037;-65
2024/03/30 07:06:05;;;;;;;25.17;6.07;;;;;;;;;;5029513;28;20094;-66
2024/03/30 07:08:32;;;;;;;15.25;5.05;;;;;;;;;;5029946;28;20057;-68
2024/03/30 07:10:58;;;;;;;15.48;5.93;;;;;;;;;;5030059;28;20451;-63
2024/03/30 07:13:24;;;;;;;19.58;5.82;;;;;;;;;;5030696;28;20108;-64
2024/03/30 07:15:50;;;;;;;18.30;5.57;;;;;;;;;;5028703;28;20139;-61
2024/03/30 07:18:18;;;;;;;12.00;4.75;;;;;;;;;;5033009;28;20025;-64
2024/03/30 07:20:43;;;;;;;13.02;5.65;;;;;;;;;;5033964;28;20442;-64
2024/03/30 07:23:09;;;;;;;10.02;5.10;;;;;;;;;;5034277;28;20136;-64
2024/03/30 07:25:39;;;;;;;16.58;5.57;;;;;;;;;;5034208;28;20025;-64
2024/03/30 07:28:08;;;;;;;16.35;5.32;;;;;;;;;;5033844;28;20025;-65
2024/03/30 07:30:37;;;;;;;19.67;6.30;;;;;;;;;;5033332;28;20025;-64
2024/03/30 07:33:05;;;;;;;12.15;4.90;;;;;;;;;;5033416;28;20113;-64
2024/03/30 07:35:31;;;;;;;14.18;5.03;;;;;;;;;;5033559;28;20040;-66
2024/03/30 07:37:57;;;;;;;15.13;4.38;;;;;;;;;;5033622;28;20047;-65
2024/03/30 07:40:23;;;;;;;17.67;5.10;;;;;;;;;;5035052;28;20021;-64
2024/03/30 07:42:49;;;;;;;16.67;5.03;;;;;;;;;;5034254;28;20060;-64
2024/03/30 07:45:15;;;;;;;12.20;4.60;;;;;;;;;;5034928;28;20026;-65
2024/03/30 07:47:42;;;;;;;40.17;6.93;;;;;;;;;;5034906;28;20397;-66
2024/03/30 07:50:08;;;;;;;22.35;5.63;;;;;;;;;;5034905;28;20017;-68
2024/03/30 07:52:34;;;;;;;18.52;5.35;;;;;;;;;;5033939;28;20019;-64
2024/03/30 07:55:00;;;;;;;16.35;4.97;;;;;;;;;;5033550;28;20105;-63
2024/03/30 07:57:26;;;;;;;16.00;5.65;;;;;;;;;;5033964;28;20497;-65
2024/03/30 07:59:52;;;;;;;15.20;5.07;;;;;;;;;;5032695;28;20030;-64
2024/03/30 08:02:18;;;;;;;15.50;4.75;;;;;;;;;;5032892;28;20041;-62
2024/03/30 08:04:44;;;;;;;12.93;4.82;;;;;;;;;;5033312;28;20021;-63
2024/03/30 08:07:10;;;;;;;13.18;4.60;;;;;;;;;;5033979;28;20449;-63
2024/03/30 08:09:36;;;;;;;15.00;4.53;;;;;;;;;;5033925;28;20398;-63
2024/03/30 08:12:03;;;;;;;11.13;4.22;;;;;;;;;;5033285;28;20374;-63
2024/03/30 08:14:29;;;;;;;14.40;4.85;;;;;;;;;;5032253;28;20021;-61
2024/03/30 08:16:55;;;;;;;12.90;4.60;;;;;;;;;;5032178;28;20341;-63
2024/03/30 08:19:21;;;;;;;11.00;4.05;;;;;;;;;;5032120;28;20079;-64
2024/03/30 08:21:47;;;;;;;12.63;3.58;;;;;;;;;;5032546;28;20017;-64
2024/03/30 08:24:13;;;;;;;13.18;3.60;;;;;;;;;;5031838;28;20018;-65
2024/03/30 08:26:39;;;;;;;11.63;4.03;;;;;;;;;;5032278;28;20504;-64
2024/03/30 08:29:06;;;;;;;12.15;4.03;;;;;;;;;;5025516;28;20030;-65
2024/03/30 08:31:32;;;;;;;11.57;3.53;;;;;;;;;;5033556;28;20053;-66
2024/03/30 08:33:58;;;;;;;15.20;3.33;;;;;;;;;;5033840;28;20040;-65
2024/03/30 08:36:25;;;;;;;8.10;3.58;;;;;;;;;;5033566;28;20047;-64
2024/03/30 08:38:51;;;;;;;8.32;3.20;;;;;;;;;;5033547;28;20030;-65
2024/03/30 08:41:17;;;;;;;11.32;3.50;;;;;;;;;;5032047;28;20017;-65
2024/03/30 08:43:43;;;;;;;9.50;3.03;;;;;;;;;;5033099;28;20036;-64
2024/03/30 08:46:09;;;;;;;7.47;3.85;;;;;;;;;;5033576;28;20536;-64
2024/03/30 08:48:35;;;;;;;9.65;3.22;;;;;;;;;;5033505;28;20128;-63
2024/03/30 08:51:01;;;;;;;10.70;3.30;;;;;;;;;;5033238;28;20026;-65
2024/03/30 08:53:28;;;;;;;8.68;2.85;;;;;;;;;;5033166;28;20027;-65
2024/03/30 08:56:01;;;;;;;6.35;2.80;;;;;;;;;;5031346;28;20037;-65
2024/03/30 08:58:27;;;;;;;10.23;3.33;;;;;;;;;;5032877;28;20464;-63
2024/03/30 09:00:53;;;;;;;5.70;2.70;;;;;;;;;;5032939;28;20440;-65
2024/03/30 09:03:20;;;;;;;9.18;3.40;;;;;;;;;;5032871;28;20052;-65
2024/03/30 09:05:46;;;;;;;10.40;3.25;;;;;;;;;;5032821;28;20028;-64
2024/03/30 09:08:12;;;;;;;7.75;3.08;;;;;;;;;;5032993;28;20021;-65
2024/03/30 09:10:38;;;;;;;5.85;2.85;;;;;;;;;;5032917;28;20056;-62
2024/03/30 09:13:04;;;;;;;4.35;2.30;;;;;;;;;;5032813;28;20024;-65
2024/03/30 09:15:30;;;;;;;9.73;2.80;;;;;;;;;;5032809;28;20033;-65
2024/03/30 09:17:56;;;;;;;6.55;2.70;;;;;;;;;;5032554;28;20104;-65
2024/03/30 09:20:22;;;;;;;7.45;3.15;;;;;;;;;;5014621;28;20021;-65
2024/03/30 09:22:48;;;;;;;4.78;2.42;;;;;;;;;;5032392;28;20021;-63
2024/03/30 09:25:14;;;;;;;6.40;2.78;;;;;;;;;;5032452;28;20469;-63
2024/03/30 09:27:44;;;;;;;8.18;2.70;;;;;;;;;;5032564;28;20036;-65
2024/03/30 09:30:10;;;;;;;5.57;2.40;;;;;;;;;;5025038;28;20789;-64
2024/03/30 09:32:39;;;;;;;6.20;2.45;;;;;;;;;;5032291;28;20053;-65
2024/03/30 09:35:05;;;;;;;6.65;2.58;;;;;;;;;;5024395;28;20024;-65
2024/03/30 09:37:31;;;;;;;5.18;2.85;;;;;;;;;;5032528;28;20017;-64
2024/03/30 09:39:57;;;;;;;7.55;2.60;;;;;;;;;;5031839;28;20473;-64
2024/03/30 09:42:33;;;;;;;3.22;1.92;;;;;;;;;;5031792;28;20075;-64
2024/03/30 09:45:00;;;;;;;5.40;2.38;;;;;;;;;;5031851;28;20112;-64
2024/03/30 09:47:27;;;;;;;7.20;2.42;;;;;;;;;;5032255;28;20029;-64
2024/03/30 09:49:53;;;;;;;5.20;2.70;;;;;;;;;;5032251;28;20026;-65
2024/03/30 09:52:23;;;;;;;5.63;2.78;;;;;;;;;;5031928;28;20388;-65
2024/03/30 09:54:51;;;;;;;7.82;2.58;;;;;;;;;;5031810;28;20441;-64
2024/03/30 09:57:17;;;;;;;3.75;2.15;;;;;;;;;;5032101;28;20048;-64
2024/03/30 09:59:44;;;;;;;7.63;2.55;;;;;;;;;;5031795;28;20026;-64
2024/03/30 10:02:10;;;;;;;4.18;2.05;;;;;;;;;;5032092;28;20428;-64
2024/03/30 10:04:37;;;;;;;7.28;2.42;;;;;;;;;;5031936;28;20026;-65
2024/03/30 10:07:04;;;;;;;5.85;2.25;;;;;;;;;;5031867;28;20041;-64
2024/03/30 10:09:31;;;;;;;5.53;2.38;;;;;;;;;;5031945;28;20135;-63
2024/03/30 10:12:03;;;;;;;5.10;2.22;;;;;;;;;;5031460;28;20077;-64
2024/03/30 10:14:47;;;;;;;3.20;1.83;;;;;;;;;;5031734;28;20018;-65
2024/03/30 10:17:13;;;;;;;6.50;2.40;;;;;;;;;;5025205;28;20425;-64
2024/03/30 10:19:40;;;;;;;3.95;2.03;;;;;;;;;;5031474;28;20025;-65
2024/03/30 10:22:06;;;;;;;6.97;2.38;;;;;;;;;;5031134;28;20021;-65
2024/03/30 10:24:33;;;;;;;5.70;1.98;;;;;;;;;;5031626;28;20510;-64
2024/03/30 10:27:00;;;;;;;5.88;2.17;;;;;;;;;;5031458;28;20056;-64
2024/03/30 10:29:26;;;;;;;7.32;2.13;;;;;;;;;;5031494;28;20053;-64
2024/03/30 10:31:52;;;;;;;6.88;2.58;;;;;;;;;;5031230;28;20037;-64
2024/03/30 10:34:18;;;;;;;5.75;2.33;;;;;;;;;;5031636;28;20021;-64
2024/03/30 10:36:46;;;;;;;5.00;2.08;;;;;;;;;;5031241;28;20033;-64
2024/03/30 10:39:12;;;;;;;5.82;3.17;;;;;;;;;;5036124;28;20032;-65
2024/03/30 10:41:38;;;;;;;4.70;1.95;;;;;;;;;;5034755;28;20093;-64
2024/03/30 10:44:04;;;;;;;4.78;1.90;;;;;;;;;;5031253;28;20121;-64
2024/03/30 10:46:30;;;;;;;5.40;2.22;;;;;;;;;;5030901;28;20033;-65
2024/03/30 10:48:57;;;;;;;5.93;1.92;;;;;;;;;;5031031;28;20033;-65
2024/03/30 10:51:24;;;;;;;4.93;2.35;;;;;;;;;;5031018;28;20021;-65
2024/03/30 10:53:50;;;;;;;6.00;2.03;;;;;;;;;;5031094;28;20590;-64
2024/03/30 10:56:17;;;;;;;4.30;1.80;;;;;;;;;;5030798;28;20037;-63
2024/03/30 10:58:43;;;;;;;9.13;2.00;;;;;;;;;;5030973;28;20079;-64
2024/03/30 11:01:09;;;;;;;3.78;1.80;;;;;;;;;;5031224;28;20022;-64
2024/03/30 11:03:35;;;;;;;6.03;1.70;;;;;;;;;;5031115;28;20477;-64
2024/03/30 11:06:02;;;;;;;4.18;1.52;;;;;;;;;;5030924;28;20389;-65
2024/03/30 11:08:28;;;;;;;6.20;2.20;;;;;;;;;;5031681;28;20366;-64
2024/03/30 11:10:54;;;;;;;3.83;1.90;;;;;;;;;;5030927;28;20022;-64
2024/03/30 11:13:21;;;;;;;5.20;2.05;;;;;;;;;;5031114;28;20125;-65
2024/03/30 11:15:47;;;;;;;5.13;1.63;;;;;;;;;;5030604;28;20025;-63
2024/03/30 11:18:21;;;;;;;5.28;1.67;;;;;;;;;;5030971;28;20057;-64
2024/03/30 11:20:56;;;;;;;5.68;1.75;;;;;;;;;;5030682;28;20026;-64
2024/03/30 11:23:36;;;;;;;4.60;2.08;;;;;;;;;;5030959;28;20049;-64
2024/03/30 11:26:09;;;;;;;6.07;2.63;;;;;;;;;;5030729;28;20084;-65
2024/03/30 11:28:53;;;;;;;5.20;2.50;;;;;;;;;;5030665;28;20028;-63
2024/03/30 11:31:28;;;;;;;4.53;2.20;;;;;;;;;;5028896;28;20025;-65
2024/03/30 11:34:01;;;;;;;5.28;2.15;;;;;;;;;;5030618;28;20041;-64
2024/03/30 11:36:39;;;;;;;5.15;2.08;;;;;;;;;;5030730;28;20083;-64
2024/03/30 11:39:10;;;;;;;5.60;2.47;;;;;;;;;;5030607;28;20028;-65
2024/03/30 11:41:36;;;;;;;;;;;;;;;;;;5039243;28;20067;-65
2024/03/30 11:44:08;;;;;;;4.38;2.22;;;;;;;;;;5034435;28;19913;-64
2024/03/30 11:46:35;;;;;;;5.63;2.17;;;;;;;;;;5030650;28;20092;-64
2024/03/30 11:49:01;;;;;;;5.90;1.90;;;;;;;;;;5030585;28;20659;-64
2024/03/30 11:51:31;;;;;;;6.38;1.85;;;;;;;;;;5030740;28;20393;-62
2024/03/30 11:53:57;;;;;;;4.57;1.65;;;;;;;;;;5030782;28;20108;-63
2024/03/30 11:56:32;;;;;;;6.18;2.28;;;;;;;;;;5030643;28;20060;-65
2024/03/30 11:59:00;;;;;;;4.63;1.88;;;;;;;;;;5030582;28;20100;-64
2024/03/30 12:01:26;;;;;;;5.85;2.00;;;;;;;;;;5030461;28;20032;-64
2024/03/30 12:03:53;;;;;;;5.20;1.95;;;;;;;;;;5031406;28;20104;-64
2024/03/30 12:06:21;;;;;;;5.38;2.28;;;;;;;;;;5034352;28;20021;-64
2024/03/30 12:08:49;;;;;;;6.60;2.15;;;;;;;;;;5034236;28;20032;-63
2024/03/30 12:11:15;;;;;;;8.40;1.90;;;;;;;;;;5016254;28;20021;-65
2024/03/30 12:13:42;;;;;;;6.57;1.67;;;;;;;;;;5033904;28;20033;-64
2024/03/30 12:16:09;;;;;;;3.63;1.80;;;;;;;;;;5026694;28;20025;-64
2024/03/30 12:18:35;;;;;;;4.93;1.65;;;;;;;;;;5034021;28;20397;-64
2024/03/30 12:21:01;;;;;;;6.65;1.73;;;;;;;;;;5033915;28;20497;-64
2024/03/30 12:23:27;;;;;;;6.03;1.65;;;;;;;;;;5033967;28;20095;-62
2024/03/30 12:25:57;;;;;;;6.97;1.63;;;;;;;;;;5033362;28;20382;-64
2024/03/30 12:28:23;;;;;;;5.72;2.05;;;;;;;;;;5034073;28;20072;-63
2024/03/30 12:30:50;;;;;;;5.00;1.52;;;;;;;;;;5015784;28;20451;-63
2024/03/30 12:33:16;;;;;;;5.03;1.88;;;;;;;;;;5033723;28;20072;-62
2024/03/30 12:35:43;;;;;;;4.20;1.80;;;;;;;;;;5033986;28;20472;-64
2024/03/30 12:38:13;;;;;;;6.15;1.55;;;;;;;;;;5034393;28;20022;-64
2024/03/30 12:40:39;;;;;;;8.57;2.05;;;;;;;;;;5035977;28;20029;-64
2024/03/30 12:43:05;;;;;;;6.43;1.73;;;;;;;;;;5028837;28;20013;-62
2024/03/30 12:45:31;;;;;;;4.15;1.45;;;;;;;;;;5033433;28;20508;-64
2024/03/30 12:47:57;;;;;;;3.30;1.73;;;;;;;;;;5033148;28;20021;-63
2024/03/30 12:50:27;;;;;;;4.82;1.67;;;;;;;;;;5033685;28;20017;-64
2024/03/30 12:52:55;;;;;;;3.50;1.38;;;;;;;;;;5033584;28;20079;-64
2024/03/30 12:55:21;;;;;;;4.43;1.73;;;;;;;;;;5033807;28;20109;-64
2024/03/30 12:57:47;;;;;;;3.30;1.40;;;;;;;;;;5033138;28;20084;-64
2024/03/30 13:00:17;;;;;;;5.20;1.58;;;;;;;;;;5033030;28;20033;-64
2024/03/30 13:02:49;;;;;;;3.22;1.30;;;;;;;;;;5040974;28;20018;-64
2024/03/30 13:05:15;;;;;;;3.17;1.48;;;;;;;;;;5033367;28;20026;-64
2024/03/30 13:07:41;;;;;;;3.28;1.80;;;;;;;;;;5033310;28;20135;-64
2024/03/30 13:10:09;;;;;;;3.25;1.73;;;;;;;;;;5033121;28;20117;-64
2024/03/30 13:12:35;;;;;;;5.97;1.85;;;;;;;;;;5032966;28;20048;-62
2024/03/30 13:15:02;;;;;;;8.18;1.75;;;;;;;;;;5032265;28;20021;-65
2024/03/30 13:17:28;;;;;;;4.82;1.95;;;;;;;;;;5032455;28;20022;-64
2024/03/30 13:19:54;;;;;;;5.90;1.85;;;;;;;;;;5032718;28;20148;-64
2024/03/30 13:22:20;;;;;;;5.60;1.90;;;;;;;;;;5032816;28;20049;-64
2024/03/30 13:24:46;;;;;;;4.38;1.30;;;;;;;;;;5032760;28;20095;-62
2024/03/30 13:27:12;;;;;;;3.22;1.08;;;;;;;;;;5032597;28;20029;-65
2024/03/30 13:29:41;;;;;;;4.05;2.00;;;;;;;;;;5032621;28;20144;-64
2024/03/30 13:32:10;;;;;;;2.38;1.17;;;;;;;;;;5031936;28;20025;-64
2024/03/30 13:34:36;;;;;;;6.43;1.50;;;;;;;;;;5032498;28;20018;-63
2024/03/30 13:37:03;;;;;;;3.80;1.40;;;;;;;;;;5032266;28;20103;-65
2024/03/30 13:39:29;;;;;;;3.53;2.03;;;;;;;;;;5031945;28;20477;-64
2024/03/30 13:41:55;;;;;;;5.45;1.70;;;;;;;;;;5030964;28;20084;-63
2024/03/30 13:44:21;;;;;;;4.75;1.73;;;;;;;;;;5030967;28;20559;-64
2024/03/30 13:46:47;;;;;;;4.32;1.35;;;;;;;;;;5030473;28;20032;-64
2024/03/30 13:49:14;;;;;;;4.38;1.90;;;;;;;;;;5030913;28;20041;-63
2024/03/30 13:51:40;;;;;;;4.13;2.28;;;;;;;;;;5030768;28;20049;-64
2024/03/30 13:54:06;;;;;;;4.53;1.92;;;;;;;;;;5030862;28;20057;-63
2024/03/30 13:56:32;;;;;;;3.47;1.42;;;;;;;;;;5030721;28;20104;-63
2024/03/30 13:58:58;;;;;;;5.60;1.83;;;;;;;;;;5030526;28;20036;-63
2024/03/30 14:01:24;;;;;;;2.63;1.50;;;;;;;;;;5030317;28;20021;-63
2024/03/30 14:03:50;;;;;;;5.47;1.85;;;;;;;;;;5030419;28;20029;-63
2024/03/30 14:06:16;;;;;;;3.70;1.48;;;;;;;;;;5030372;28;20063;-63
2024/03/30 14:08:42;;;;;;;4.68;1.80;;;;;;;;;;5030219;28;20035;-64
2024/03/30 14:11:08;;;;;;;4.03;1.67;;;;;;;;;;5030371;28;20068;-62
2024/03/30 14:13:34;;;;;;;3.55;1.90;;;;;;;;;;5030371;28;20052;-64
2024/03/30 14:16:01;;;;;;;6.22;1.67;;;;;;;;;;5030148;28;20104;-65
2024/03/30 14:18:27;;;;;;;3.22;1.25;;;;;;;;;;5030363;28;20095;-64
2024/03/30 14:20:53;;;;;;;2.22;1.08;;;;;;;;;;5030288;28;20478;-62
2024/03/30 14:23:19;;;;;;;4.03;1.40;;;;;;;;;;5030320;28;20017;-64
2024/03/30 14:25:46;;;;;;;6.50;1.83;;;;;;;;;;5030054;28;20056;-64
2024/03/30 14:28:13;;;;;;;3.97;1.40;;;;;;;;;;5029893;28;20039;-65
2024/03/30 14:30:39;;;;;;;4.18;1.35;;;;;;;;;;5030329;28;20164;-62
2024/03/30 14:33:05;;;;;;;6.60;1.98;;;;;;;;;;5029922;28;20067;-63